sensor_id;sensor_type;location;lat;lon;timestamp;P1;durP1;ratioP1;P2;durP2;ratioP2
42094;SDS011;27753;55.724;37.612;2023-04-24T00:00:16;15.40;;;7.35;;
42094;SDS011;27753;55.724;37.612;2023-04-24T00:02:43;19.67;;;8.13;;
42094;SDS011;27753;55.724;37.612;2023-04-24T00:05:16;15.68;;;8.82;;
42094;SDS011;27753;55.724;37.612;2023-04-24T00:07:43;14.45;;;7.43;;
42094;SDS011;27753;55.724;37.612;2023-04-24T00:10:10;19.48;;;7.65;;
42094;SDS011;27753;55.724;37.612;2023-04-24T00:12:36;13.63;;;6.30;;
42094;SDS011;27753;55.724;37.612;2023-04-24T00:15:03;18.08;;;7.38;;
42094;SDS011;27753;55.724;37.612;2023-04-24T00:17:30;20.00;;;7.38;;
42094;SDS011;27753;55.724;37.612;2023-04-24T00:19:56;12.73;;;6.78;;
42094;SDS011;27753;55.724;37.612;2023-04-24T00:22:25;15.10;;;7.78;;
42094;SDS011;27753;55.724;37.612;2023-04-24T00:24:51;14.68;;;7.90;;
42094;SDS011;27753;55.724;37.612;2023-04-24T00:27:17;14.07;;;8.25;;
42094;SDS011;27753;55.724;37.612;2023-04-24T00:29:42;13.60;;;7.70;;
42094;SDS011;27753;55.724;37.612;2023-04-24T00:32:08;19.63;;;8.63;;
42094;SDS011;27753;55.724;37.612;2023-04-24T00:34:34;18.42;;;7.47;;
42094;SDS011;27753;55.724;37.612;2023-04-24T00:37:00;20.33;;;8.68;;
42094;SDS011;27753;55.724;37.612;2023-04-24T00:39:26;16.30;;;7.53;;
42094;SDS011;27753;55.724;37.612;2023-04-24T00:41:52;20.80;;;8.10;;
42094;SDS011;27753;55.724;37.612;2023-04-24T00:44:18;14.98;;;8.07;;
42094;SDS011;27753;55.724;37.612;2023-04-24T00:46:44;16.80;;;7.10;;
42094;SDS011;27753;55.724;37.612;2023-04-24T00:49:12;17.80;;;7.50;;
42094;SDS011;27753;55.724;37.612;2023-04-24T00:51:39;16.08;;;7.47;;
42094;SDS011;27753;55.724;37.612;2023-04-24T00:54:05;16.55;;;8.23;;
42094;SDS011;27753;55.724;37.612;2023-04-24T00:56:31;15.38;;;7.50;;
42094;SDS011;27753;55.724;37.612;2023-04-24T00:58:57;19.65;;;7.78;;
42094;SDS011;27753;55.724;37.612;2023-04-24T01:01:24;18.15;;;7.85;;
42094;SDS011;27753;55.724;37.612;2023-04-24T01:03:50;14.18;;;7.78;;
42094;SDS011;27753;55.724;37.612;2023-04-24T01:06:16;16.15;;;7.55;;
42094;SDS011;27753;55.724;37.612;2023-04-24T01:08:44;16.02;;;8.80;;
42094;SDS011;27753;55.724;37.612;2023-04-24T01:11:11;19.40;;;7.97;;
42094;SDS011;27753;55.724;37.612;2023-04-24T01:13:37;19.25;;;9.65;;
42094;SDS011;27753;55.724;37.612;2023-04-24T01:16:04;22.67;;;8.80;;
42094;SDS011;27753;55.724;37.612;2023-04-24T01:18:30;16.75;;;7.90;;
42094;SDS011;27753;55.724;37.612;2023-04-24T01:20:57;15.10;;;8.25;;
42094;SDS011;27753;55.724;37.612;2023-04-24T01:23:24;18.52;;;8.30;;
42094;SDS011;27753;55.724;37.612;2023-04-24T01:25:51;23.97;;;8.63;;
42094;SDS011;27753;55.724;37.612;2023-04-24T01:28:17;19.92;;;8.48;;
42094;SDS011;27753;55.724;37.612;2023-04-24T01:30:44;20.20;;;9.88;;
42094;SDS011;27753;55.724;37.612;2023-04-24T01:33:10;25.55;;;10.57;;
42094;SDS011;27753;55.724;37.612;2023-04-24T01:35:36;19.17;;;9.50;;
42094;SDS011;27753;55.724;37.612;2023-04-24T01:38:03;27.08;;;9.07;;
42094;SDS011;27753;55.724;37.612;2023-04-24T01:40:29;22.27;;;9.50;;
42094;SDS011;27753;55.724;37.612;2023-04-24T01:42:56;17.05;;;8.90;;
42094;SDS011;27753;55.724;37.612;2023-04-24T01:45:23;24.70;;;10.55;;
42094;SDS011;27753;55.724;37.612;2023-04-24T01:47:49;28.83;;;10.30;;
42094;SDS011;27753;55.724;37.612;2023-04-24T01:50:15;21.52;;;9.85;;
42094;SDS011;27753;55.724;37.612;2023-04-24T01:52:41;19.83;;;9.88;;
42094;SDS011;27753;55.724;37.612;2023-04-24T01:55:07;22.17;;;10.00;;
42094;SDS011;27753;55.724;37.612;2023-04-24T01:57:33;21.67;;;10.48;;
42094;SDS011;27753;55.724;37.612;2023-04-24T02:00:00;23.85;;;10.73;;
42094;SDS011;27753;55.724;37.612;2023-04-24T02:02:28;22.90;;;10.93;;
42094;SDS011;27753;55.724;37.612;2023-04-24T02:04:55;22.63;;;11.98;;
42094;SDS011;27753;55.724;37.612;2023-04-24T02:07:21;24.30;;;11.90;;
42094;SDS011;27753;55.724;37.612;2023-04-24T02:09:47;28.95;;;12.77;;
42094;SDS011;27753;55.724;37.612;2023-04-24T02:12:14;18.77;;;12.25;;
42094;SDS011;27753;55.724;37.612;2023-04-24T02:14:42;30.38;;;12.07;;
42094;SDS011;27753;55.724;37.612;2023-04-24T02:17:08;27.13;;;12.35;;
42094;SDS011;27753;55.724;37.612;2023-04-24T02:19:34;23.48;;;12.20;;
42094;SDS011;27753;55.724;37.612;2023-04-24T02:22:00;22.40;;;11.63;;
42094;SDS011;27753;55.724;37.612;2023-04-24T02:24:26;24.58;;;12.00;;
42094;SDS011;27753;55.724;37.612;2023-04-24T02:26:52;29.73;;;12.60;;
42094;SDS011;27753;55.724;37.612;2023-04-24T02:29:18;33.97;;;13.80;;
42094;SDS011;27753;55.724;37.612;2023-04-24T02:31:43;36.83;;;15.65;;
42094;SDS011;27753;55.724;37.612;2023-04-24T02:34:09;35.00;;;13.50;;
42094;SDS011;27753;55.724;37.612;2023-04-24T02:36:35;39.85;;;14.95;;
42094;SDS011;27753;55.724;37.612;2023-04-24T02:39:01;39.53;;;15.82;;
42094;SDS011;27753;55.724;37.612;2023-04-24T02:41:27;37.85;;;13.98;;
42094;SDS011;27753;55.724;37.612;2023-04-24T02:43:56;29.45;;;14.15;;
42094;SDS011;27753;55.724;37.612;2023-04-24T02:46:23;45.83;;;16.48;;
42094;SDS011;27753;55.724;37.612;2023-04-24T02:48:49;33.83;;;13.98;;
42094;SDS011;27753;55.724;37.612;2023-04-24T02:51:14;34.67;;;15.30;;
42094;SDS011;27753;55.724;37.612;2023-04-24T02:53:40;33.67;;;14.32;;
42094;SDS011;27753;55.724;37.612;2023-04-24T02:56:06;30.60;;;15.70;;
42094;SDS011;27753;55.724;37.612;2023-04-24T02:58:32;30.83;;;15.65;;
42094;SDS011;27753;55.724;37.612;2023-04-24T03:00:57;35.53;;;14.07;;
42094;SDS011;27753;55.724;37.612;2023-04-24T03:03:23;33.25;;;15.40;;
42094;SDS011;27753;55.724;37.612;2023-04-24T03:05:50;28.80;;;15.98;;
42094;SDS011;27753;55.724;37.612;2023-04-24T03:08:16;28.98;;;14.50;;
42094;SDS011;27753;55.724;37.612;2023-04-24T03:10:42;40.85;;;16.50;;
42094;SDS011;27753;55.724;37.612;2023-04-24T03:13:08;26.35;;;15.65;;
42094;SDS011;27753;55.724;37.612;2023-04-24T03:15:34;25.98;;;15.32;;
42094;SDS011;27753;55.724;37.612;2023-04-24T03:18:00;37.63;;;16.95;;
42094;SDS011;27753;55.724;37.612;2023-04-24T03:20:26;27.17;;;14.95;;
42094;SDS011;27753;55.724;37.612;2023-04-24T03:22:52;26.17;;;15.10;;
42094;SDS011;27753;55.724;37.612;2023-04-24T03:25:18;28.15;;;15.35;;
42094;SDS011;27753;55.724;37.612;2023-04-24T03:27:43;31.92;;;14.50;;
42094;SDS011;27753;55.724;37.612;2023-04-24T03:30:09;36.13;;;15.93;;
42094;SDS011;27753;55.724;37.612;2023-04-24T03:32:35;30.63;;;15.00;;
42094;SDS011;27753;55.724;37.612;2023-04-24T03:35:01;34.58;;;16.98;;
42094;SDS011;27753;55.724;37.612;2023-04-24T03:37:28;32.95;;;15.15;;
42094;SDS011;27753;55.724;37.612;2023-04-24T03:39:54;30.58;;;15.77;;
42094;SDS011;27753;55.724;37.612;2023-04-24T03:42:20;26.98;;;16.42;;
42094;SDS011;27753;55.724;37.612;2023-04-24T03:44:46;26.63;;;15.48;;
42094;SDS011;27753;55.724;37.612;2023-04-24T03:47:12;25.17;;;15.43;;
42094;SDS011;27753;55.724;37.612;2023-04-24T03:49:37;42.60;;;16.33;;
42094;SDS011;27753;55.724;37.612;2023-04-24T03:52:03;31.38;;;16.20;;
42094;SDS011;27753;55.724;37.612;2023-04-24T03:54:29;29.48;;;16.33;;
42094;SDS011;27753;55.724;37.612;2023-04-24T03:56:55;26.00;;;16.10;;
42094;SDS011;27753;55.724;37.612;2023-04-24T03:59:21;27.38;;;15.30;;
42094;SDS011;27753;55.724;37.612;2023-04-24T04:01:46;27.38;;;15.50;;
42094;SDS011;27753;55.724;37.612;2023-04-24T04:04:12;31.42;;;15.40;;
42094;SDS011;27753;55.724;37.612;2023-04-24T04:06:38;31.50;;;16.08;;
42094;SDS011;27753;55.724;37.612;2023-04-24T04:09:04;27.80;;;14.70;;
42094;SDS011;27753;55.724;37.612;2023-04-24T04:11:30;31.90;;;16.98;;
42094;SDS011;27753;55.724;37.612;2023-04-24T04:13:55;32.17;;;15.68;;
42094;SDS011;27753;55.724;37.612;2023-04-24T04:16:22;27.77;;;14.80;;
42094;SDS011;27753;55.724;37.612;2023-04-24T04:18:48;20.05;;;14.48;;
42094;SDS011;27753;55.724;37.612;2023-04-24T04:21:14;30.42;;;15.13;;
42094;SDS011;27753;55.724;37.612;2023-04-24T04:23:40;28.33;;;15.73;;
42094;SDS011;27753;55.724;37.612;2023-04-24T04:26:06;22.15;;;14.32;;
42094;SDS011;27753;55.724;37.612;2023-04-24T04:28:33;23.08;;;14.75;;
42094;SDS011;27753;55.724;37.612;2023-04-24T04:30:59;32.67;;;15.15;;
42094;SDS011;27753;55.724;37.612;2023-04-24T04:33:26;22.13;;;14.02;;
42094;SDS011;27753;55.724;37.612;2023-04-24T04:35:52;23.60;;;13.95;;
42094;SDS011;27753;55.724;37.612;2023-04-24T04:38:18;25.50;;;15.13;;
42094;SDS011;27753;55.724;37.612;2023-04-24T04:40:45;25.75;;;15.30;;
42094;SDS011;27753;55.724;37.612;2023-04-24T04:43:11;25.83;;;16.00;;
42094;SDS011;27753;55.724;37.612;2023-04-24T04:45:39;30.42;;;16.08;;
42094;SDS011;27753;55.724;37.612;2023-04-24T04:48:07;24.67;;;15.10;;
42094;SDS011;27753;55.724;37.612;2023-04-24T04:50:34;29.87;;;16.23;;
42094;SDS011;27753;55.724;37.612;2023-04-24T04:53:00;34.38;;;16.00;;
42094;SDS011;27753;55.724;37.612;2023-04-24T04:55:26;25.80;;;15.85;;
42094;SDS011;27753;55.724;37.612;2023-04-24T04:57:52;32.20;;;16.10;;
42094;SDS011;27753;55.724;37.612;2023-04-24T05:00:19;32.65;;;17.15;;
42094;SDS011;27753;55.724;37.612;2023-04-24T05:02:46;26.38;;;16.00;;
42094;SDS011;27753;55.724;37.612;2023-04-24T05:05:12;31.77;;;16.40;;
42094;SDS011;27753;55.724;37.612;2023-04-24T05:07:37;32.75;;;17.08;;
42094;SDS011;27753;55.724;37.612;2023-04-24T05:10:03;27.38;;;16.77;;
42094;SDS011;27753;55.724;37.612;2023-04-24T05:12:29;36.23;;;15.97;;
42094;SDS011;27753;55.724;37.612;2023-04-24T05:14:55;26.73;;;15.68;;
42094;SDS011;27753;55.724;37.612;2023-04-24T05:17:21;30.45;;;16.40;;
42094;SDS011;27753;55.724;37.612;2023-04-24T05:19:47;30.50;;;14.90;;
42094;SDS011;27753;55.724;37.612;2023-04-24T05:22:13;37.15;;;15.60;;
42094;SDS011;27753;55.724;37.612;2023-04-24T05:24:39;31.83;;;15.68;;
42094;SDS011;27753;55.724;37.612;2023-04-24T05:27:05;29.40;;;15.07;;
42094;SDS011;27753;55.724;37.612;2023-04-24T05:29:31;25.63;;;15.65;;
42094;SDS011;27753;55.724;37.612;2023-04-24T05:34:23;23.87;;;12.93;;
42094;SDS011;27753;55.724;37.612;2023-04-24T05:36:50;23.92;;;12.40;;
42094;SDS011;27753;55.724;37.612;2023-04-24T05:39:16;26.77;;;14.05;;
42094;SDS011;27753;55.724;37.612;2023-04-24T05:41:42;28.83;;;12.20;;
42094;SDS011;27753;55.724;37.612;2023-04-24T05:44:08;21.05;;;13.48;;
42094;SDS011;27753;55.724;37.612;2023-04-24T05:46:34;29.05;;;13.75;;
42094;SDS011;27753;55.724;37.612;2023-04-24T05:49:00;32.72;;;16.52;;
42094;SDS011;27753;55.724;37.612;2023-04-24T05:51:27;28.50;;;13.15;;
42094;SDS011;27753;55.724;37.612;2023-04-24T05:53:54;25.08;;;12.35;;
42094;SDS011;27753;55.724;37.612;2023-04-24T05:56:19;31.57;;;14.77;;
42094;SDS011;27753;55.724;37.612;2023-04-24T05:58:46;28.83;;;12.27;;
42094;SDS011;27753;55.724;37.612;2023-04-24T06:01:12;31.83;;;12.00;;
42094;SDS011;27753;55.724;37.612;2023-04-24T06:03:41;60.75;;;17.02;;
42094;SDS011;27753;55.724;37.612;2023-04-24T06:06:07;20.17;;;10.10;;
42094;SDS011;27753;55.724;37.612;2023-04-24T06:08:34;20.90;;;11.00;;
42094;SDS011;27753;55.724;37.612;2023-04-24T06:11:00;62.40;;;15.38;;
42094;SDS011;27753;55.724;37.612;2023-04-24T06:13:26;26.97;;;10.07;;
42094;SDS011;27753;55.724;37.612;2023-04-24T06:15:52;23.97;;;9.90;;
42094;SDS011;27753;55.724;37.612;2023-04-24T06:18:18;23.50;;;10.35;;
42094;SDS011;27753;55.724;37.612;2023-04-24T06:20:45;31.60;;;9.82;;
42094;SDS011;27753;55.724;37.612;2023-04-24T06:23:12;26.25;;;9.73;;
42094;SDS011;27753;55.724;37.612;2023-04-24T06:25:38;17.37;;;9.07;;
42094;SDS011;27753;55.724;37.612;2023-04-24T06:28:04;20.92;;;9.13;;
42094;SDS011;27753;55.724;37.612;2023-04-24T06:30:31;22.52;;;10.95;;
42094;SDS011;27753;55.724;37.612;2023-04-24T06:32:57;23.38;;;11.25;;
42094;SDS011;27753;55.724;37.612;2023-04-24T06:35:22;18.93;;;11.17;;
42094;SDS011;27753;55.724;37.612;2023-04-24T06:37:48;27.03;;;10.27;;
42094;SDS011;27753;55.724;37.612;2023-04-24T06:40:14;29.00;;;8.10;;
42094;SDS011;27753;55.724;37.612;2023-04-24T06:42:40;11.63;;;6.27;;
42094;SDS011;27753;55.724;37.612;2023-04-24T06:45:06;10.27;;;6.03;;
42094;SDS011;27753;55.724;37.612;2023-04-24T06:47:32;10.40;;;5.55;;
42094;SDS011;27753;55.724;37.612;2023-04-24T06:49:58;13.20;;;6.17;;
42094;SDS011;27753;55.724;37.612;2023-04-24T06:52:24;10.25;;;5.80;;
42094;SDS011;27753;55.724;37.612;2023-04-24T06:54:50;8.47;;;5.70;;
42094;SDS011;27753;55.724;37.612;2023-04-24T06:57:15;15.70;;;5.93;;
42094;SDS011;27753;55.724;37.612;2023-04-24T06:59:43;7.57;;;5.68;;
42094;SDS011;27753;55.724;37.612;2023-04-24T07:02:08;8.93;;;5.63;;
42094;SDS011;27753;55.724;37.612;2023-04-24T07:04:34;9.33;;;5.63;;
42094;SDS011;27753;55.724;37.612;2023-04-24T07:07:00;8.57;;;5.40;;
42094;SDS011;27753;55.724;37.612;2023-04-24T07:09:27;8.63;;;5.15;;
42094;SDS011;27753;55.724;37.612;2023-04-24T07:11:53;6.30;;;4.90;;
42094;SDS011;27753;55.724;37.612;2023-04-24T07:14:21;13.25;;;5.57;;
42094;SDS011;27753;55.724;37.612;2023-04-24T07:16:47;12.15;;;4.88;;
42094;SDS011;27753;55.724;37.612;2023-04-24T07:19:14;8.80;;;4.85;;
42094;SDS011;27753;55.724;37.612;2023-04-24T07:21:40;18.45;;;6.60;;
42094;SDS011;27753;55.724;37.612;2023-04-24T07:24:06;11.25;;;5.75;;
42094;SDS011;27753;55.724;37.612;2023-04-24T07:26:35;5.53;;;5.00;;
42094;SDS011;27753;55.724;37.612;2023-04-24T07:29:02;9.40;;;6.18;;
42094;SDS011;27753;55.724;37.612;2023-04-24T07:31:28;8.82;;;5.25;;
42094;SDS011;27753;55.724;37.612;2023-04-24T07:33:54;7.22;;;5.90;;
42094;SDS011;27753;55.724;37.612;2023-04-24T07:36:22;9.63;;;5.10;;
42094;SDS011;27753;55.724;37.612;2023-04-24T07:38:49;5.35;;;4.60;;
42094;SDS011;27753;55.724;37.612;2023-04-24T07:41:15;7.68;;;5.18;;
42094;SDS011;27753;55.724;37.612;2023-04-24T07:43:41;7.07;;;5.40;;
42094;SDS011;27753;55.724;37.612;2023-04-24T07:46:10;10.50;;;6.07;;
42094;SDS011;27753;55.724;37.612;2023-04-24T07:48:36;9.90;;;5.20;;
42094;SDS011;27753;55.724;37.612;2023-04-24T07:51:02;11.00;;;5.60;;
42094;SDS011;27753;55.724;37.612;2023-04-24T07:53:28;8.25;;;5.80;;
42094;SDS011;27753;55.724;37.612;2023-04-24T07:55:54;9.98;;;4.88;;
42094;SDS011;27753;55.724;37.612;2023-04-24T07:58:21;9.15;;;4.55;;
42094;SDS011;27753;55.724;37.612;2023-04-24T08:00:47;11.43;;;5.15;;
42094;SDS011;27753;55.724;37.612;2023-04-24T08:03:13;8.82;;;5.72;;
42094;SDS011;27753;55.724;37.612;2023-04-24T08:05:39;5.43;;;4.00;;
42094;SDS011;27753;55.724;37.612;2023-04-24T08:08:08;7.50;;;5.18;;
42094;SDS011;27753;55.724;37.612;2023-04-24T08:10:33;5.70;;;5.03;;
42094;SDS011;27753;55.724;37.612;2023-04-24T08:12:59;7.70;;;4.80;;
42094;SDS011;27753;55.724;37.612;2023-04-24T08:15:26;8.10;;;4.95;;
42094;SDS011;27753;55.724;37.612;2023-04-24T08:17:52;5.68;;;4.72;;
42094;SDS011;27753;55.724;37.612;2023-04-24T08:20:18;9.05;;;4.97;;
42094;SDS011;27753;55.724;37.612;2023-04-24T08:22:44;7.70;;;5.20;;
42094;SDS011;27753;55.724;37.612;2023-04-24T08:25:12;7.00;;;5.45;;
42094;SDS011;27753;55.724;37.612;2023-04-24T08:27:38;8.98;;;5.18;;
42094;SDS011;27753;55.724;37.612;2023-04-24T08:30:04;6.63;;;4.50;;
42094;SDS011;27753;55.724;37.612;2023-04-24T08:32:31;6.90;;;5.55;;
42094;SDS011;27753;55.724;37.612;2023-04-24T08:34:57;7.05;;;4.70;;
42094;SDS011;27753;55.724;37.612;2023-04-24T08:37:25;6.10;;;4.85;;
42094;SDS011;27753;55.724;37.612;2023-04-24T08:39:52;5.95;;;4.05;;
42094;SDS011;27753;55.724;37.612;2023-04-24T08:42:19;5.32;;;4.35;;
42094;SDS011;27753;55.724;37.612;2023-04-24T08:44:46;8.57;;;4.70;;
42094;SDS011;27753;55.724;37.612;2023-04-24T08:47:13;8.55;;;4.93;;
42094;SDS011;27753;55.724;37.612;2023-04-24T08:49:40;7.85;;;5.30;;
42094;SDS011;27753;55.724;37.612;2023-04-24T08:52:08;6.40;;;4.85;;
42094;SDS011;27753;55.724;37.612;2023-04-24T08:57:00;8.52;;;4.88;;
42094;SDS011;27753;55.724;37.612;2023-04-24T08:59:28;11.85;;;5.38;;
42094;SDS011;27753;55.724;37.612;2023-04-24T09:01:55;7.18;;;5.35;;
42094;SDS011;27753;55.724;37.612;2023-04-24T09:04:23;9.75;;;4.88;;
42094;SDS011;27753;55.724;37.612;2023-04-24T09:06:54;6.38;;;5.30;;
42094;SDS011;27753;55.724;37.612;2023-04-24T09:09:22;9.93;;;4.70;;
42094;SDS011;27753;55.724;37.612;2023-04-24T09:11:51;5.75;;;4.55;;
42094;SDS011;27753;55.724;37.612;2023-04-24T09:14:20;8.50;;;5.22;;
42094;SDS011;27753;55.724;37.612;2023-04-24T09:16:47;13.77;;;6.57;;
42094;SDS011;27753;55.724;37.612;2023-04-24T09:19:13;9.95;;;6.47;;
42094;SDS011;27753;55.724;37.612;2023-04-24T09:21:39;10.52;;;6.47;;
42094;SDS011;27753;55.724;37.612;2023-04-24T09:24:08;11.05;;;7.85;;
42094;SDS011;27753;55.724;37.612;2023-04-24T09:26:43;7.10;;;5.65;;
42094;SDS011;27753;55.724;37.612;2023-04-24T09:31:40;9.32;;;6.82;;
42094;SDS011;27753;55.724;37.612;2023-04-24T09:34:06;10.90;;;6.47;;
42094;SDS011;27753;55.724;37.612;2023-04-24T09:36:33;12.00;;;7.88;;
42094;SDS011;27753;55.724;37.612;2023-04-24T09:39:06;10.82;;;6.93;;
42094;SDS011;27753;55.724;37.612;2023-04-24T09:44:17;7.15;;;6.20;;
42094;SDS011;27753;55.724;37.612;2023-04-24T09:47:05;10.07;;;6.13;;
42094;SDS011;27753;55.724;37.612;2023-04-24T09:49:35;9.02;;;5.45;;
42094;SDS011;27753;55.724;37.612;2023-04-24T09:52:08;7.35;;;4.68;;
42094;SDS011;27753;55.724;37.612;2023-04-24T09:54:35;10.15;;;5.20;;
42094;SDS011;27753;55.724;37.612;2023-04-24T09:57:02;11.10;;;5.38;;
42094;SDS011;27753;55.724;37.612;2023-04-24T10:04:27;10.77;;;5.55;;
42094;SDS011;27753;55.724;37.612;2023-04-24T10:06:56;7.15;;;5.32;;
42094;SDS011;27753;55.724;37.612;2023-04-24T10:09:24;7.63;;;5.45;;
42094;SDS011;27753;55.724;37.612;2023-04-24T10:11:51;9.15;;;5.18;;
42094;SDS011;27753;55.724;37.612;2023-04-24T10:14:21;9.60;;;5.18;;
42094;SDS011;27753;55.724;37.612;2023-04-24T10:16:48;6.75;;;4.95;;
42094;SDS011;27753;55.724;37.612;2023-04-24T10:19:15;11.65;;;6.88;;
42094;SDS011;27753;55.724;37.612;2023-04-24T10:21:43;8.18;;;5.63;;
42094;SDS011;27753;55.724;37.612;2023-04-24T10:24:16;7.35;;;5.70;;
42094;SDS011;27753;55.724;37.612;2023-04-24T10:26:43;7.85;;;5.10;;
42094;SDS011;27753;55.724;37.612;2023-04-24T10:29:11;8.70;;;6.05;;
42094;SDS011;27753;55.724;37.612;2023-04-24T10:31:38;6.93;;;5.07;;
42094;SDS011;27753;55.724;37.612;2023-04-24T10:34:05;8.50;;;5.88;;
42094;SDS011;27753;55.724;37.612;2023-04-24T10:36:35;6.35;;;5.25;;
42094;SDS011;27753;55.724;37.612;2023-04-24T10:39:06;11.10;;;6.75;;
42094;SDS011;27753;55.724;37.612;2023-04-24T10:41:36;11.15;;;6.63;;
42094;SDS011;27753;55.724;37.612;2023-04-24T10:46:39;7.78;;;6.07;;
42094;SDS011;27753;55.724;37.612;2023-04-24T10:49:08;9.07;;;7.00;;
42094;SDS011;27753;55.724;37.612;2023-04-24T10:51:44;8.93;;;6.72;;
42094;SDS011;27753;55.724;37.612;2023-04-24T11:02:40;9.38;;;5.95;;
42094;SDS011;27753;55.724;37.612;2023-04-24T11:05:14;11.27;;;5.90;;
42094;SDS011;27753;55.724;37.612;2023-04-24T11:10:43;9.82;;;5.70;;
42094;SDS011;27753;55.724;37.612;2023-04-24T11:13:14;8.63;;;6.63;;
42094;SDS011;27753;55.724;37.612;2023-04-24T11:15:41;8.07;;;5.85;;
42094;SDS011;27753;55.724;37.612;2023-04-24T11:18:13;9.43;;;4.65;;
42094;SDS011;27753;55.724;37.612;2023-04-24T11:20:44;8.23;;;5.30;;
42094;SDS011;27753;55.724;37.612;2023-04-24T11:23:13;6.65;;;5.35;;
42094;SDS011;27753;55.724;37.612;2023-04-24T11:25:39;12.90;;;5.57;;
42094;SDS011;27753;55.724;37.612;2023-04-24T11:30:32;6.32;;;5.18;;
42094;SDS011;27753;55.724;37.612;2023-04-24T11:33:03;6.50;;;5.13;;
42094;SDS011;27753;55.724;37.612;2023-04-24T11:35:29;6.95;;;5.97;;
42094;SDS011;27753;55.724;37.612;2023-04-24T11:38:02;7.78;;;4.97;;
42094;SDS011;27753;55.724;37.612;2023-04-24T11:40:29;8.93;;;5.20;;
42094;SDS011;27753;55.724;37.612;2023-04-24T11:42:55;9.07;;;6.15;;
42094;SDS011;27753;55.724;37.612;2023-04-24T11:45:22;5.78;;;5.13;;
42094;SDS011;27753;55.724;37.612;2023-04-24T11:47:55;6.43;;;5.00;;
42094;SDS011;27753;55.724;37.612;2023-04-24T11:50:22;6.43;;;4.85;;
42094;SDS011;27753;55.724;37.612;2023-04-24T11:52:50;6.95;;;5.88;;
42094;SDS011;27753;55.724;37.612;2023-04-24T11:57:46;10.07;;;7.72;;
42094;SDS011;27753;55.724;37.612;2023-04-24T12:00:16;12.60;;;10.30;;
42094;SDS011;27753;55.724;37.612;2023-04-24T12:02:45;5.18;;;4.65;;
42094;SDS011;27753;55.724;37.612;2023-04-24T12:05:21;7.40;;;5.10;;
42094;SDS011;27753;55.724;37.612;2023-04-24T12:10:19;7.53;;;5.35;;
42094;SDS011;27753;55.724;37.612;2023-04-24T12:12:47;8.52;;;5.72;;
42094;SDS011;27753;55.724;37.612;2023-04-24T12:15:15;10.55;;;7.40;;
42094;SDS011;27753;55.724;37.612;2023-04-24T12:17:42;8.35;;;5.72;;
42094;SDS011;27753;55.724;37.612;2023-04-24T12:20:08;11.20;;;5.13;;
42094;SDS011;27753;55.724;37.612;2023-04-24T12:22:48;9.82;;;7.03;;
42094;SDS011;27753;55.724;37.612;2023-04-24T12:25:22;10.27;;;6.40;;
42094;SDS011;27753;55.724;37.612;2023-04-24T12:27:57;8.20;;;5.80;;
42094;SDS011;27753;55.724;37.612;2023-04-24T12:30:41;13.05;;;8.30;;
42094;SDS011;27753;55.724;37.612;2023-04-24T12:33:09;7.85;;;4.70;;
42094;SDS011;27753;55.724;37.612;2023-04-24T12:35:35;7.32;;;4.70;;
42094;SDS011;27753;55.724;37.612;2023-04-24T12:38:05;7.40;;;5.18;;
42094;SDS011;27753;55.724;37.612;2023-04-24T12:40:33;10.25;;;6.45;;
42094;SDS011;27753;55.724;37.612;2023-04-24T12:42:59;8.65;;;5.20;;
42094;SDS011;27753;55.724;37.612;2023-04-24T12:45:24;12.90;;;5.95;;
42094;SDS011;27753;55.724;37.612;2023-04-24T12:47:52;10.07;;;5.75;;
42094;SDS011;27753;55.724;37.612;2023-04-24T12:50:18;10.77;;;5.57;;
42094;SDS011;27753;55.724;37.612;2023-04-24T12:52:45;9.23;;;4.78;;
42094;SDS011;27753;55.724;37.612;2023-04-24T12:55:10;7.22;;;4.65;;
42094;SDS011;27753;55.724;37.612;2023-04-24T12:57:37;11.35;;;6.63;;
42094;SDS011;27753;55.724;37.612;2023-04-24T13:00:05;10.07;;;5.82;;
42094;SDS011;27753;55.724;37.612;2023-04-24T13:02:32;8.43;;;5.43;;
42094;SDS011;27753;55.724;37.612;2023-04-24T13:04:59;7.28;;;5.40;;
42094;SDS011;27753;55.724;37.612;2023-04-24T13:07:25;13.85;;;7.18;;
42094;SDS011;27753;55.724;37.612;2023-04-24T13:09:52;10.02;;;7.07;;
42094;SDS011;27753;55.724;37.612;2023-04-24T13:12:19;8.90;;;5.70;;
42094;SDS011;27753;55.724;37.612;2023-04-24T13:14:45;8.00;;;4.65;;
42094;SDS011;27753;55.724;37.612;2023-04-24T13:17:11;9.65;;;4.93;;
42094;SDS011;27753;55.724;37.612;2023-04-24T13:19:41;6.70;;;5.43;;
42094;SDS011;27753;55.724;37.612;2023-04-24T13:22:09;8.68;;;5.35;;
42094;SDS011;27753;55.724;37.612;2023-04-24T13:24:37;8.15;;;5.20;;
42094;SDS011;27753;55.724;37.612;2023-04-24T13:27:04;9.13;;;6.60;;
42094;SDS011;27753;55.724;37.612;2023-04-24T13:29:30;8.13;;;4.82;;
42094;SDS011;27753;55.724;37.612;2023-04-24T13:31:56;9.85;;;6.15;;
42094;SDS011;27753;55.724;37.612;2023-04-24T13:34:23;7.90;;;6.25;;
42094;SDS011;27753;55.724;37.612;2023-04-24T13:36:50;9.02;;;5.57;;
42094;SDS011;27753;55.724;37.612;2023-04-24T13:39:17;9.40;;;5.53;;
42094;SDS011;27753;55.724;37.612;2023-04-24T13:41:43;8.35;;;4.82;;
42094;SDS011;27753;55.724;37.612;2023-04-24T13:44:10;6.90;;;4.30;;
42094;SDS011;27753;55.724;37.612;2023-04-24T13:46:36;5.63;;;4.35;;
42094;SDS011;27753;55.724;37.612;2023-04-24T13:49:02;6.43;;;4.30;;
42094;SDS011;27753;55.724;37.612;2023-04-24T13:51:28;8.00;;;4.93;;
42094;SDS011;27753;55.724;37.612;2023-04-24T13:53:55;5.95;;;4.65;;
42094;SDS011;27753;55.724;37.612;2023-04-24T13:56:22;7.93;;;4.97;;
42094;SDS011;27753;55.724;37.612;2023-04-24T13:58:48;6.72;;;5.00;;
42094;SDS011;27753;55.724;37.612;2023-04-24T14:01:14;10.80;;;4.82;;
42094;SDS011;27753;55.724;37.612;2023-04-24T14:03:41;12.38;;;5.88;;
42094;SDS011;27753;55.724;37.612;2023-04-24T14:06:08;10.70;;;6.28;;
42094;SDS011;27753;55.724;37.612;2023-04-24T14:08:34;9.07;;;6.30;;
42094;SDS011;27753;55.724;37.612;2023-04-24T14:11:00;10.68;;;5.95;;
42094;SDS011;27753;55.724;37.612;2023-04-24T14:13:25;14.10;;;5.50;;
42094;SDS011;27753;55.724;37.612;2023-04-24T14:15:52;8.82;;;4.45;;
42094;SDS011;27753;55.724;37.612;2023-04-24T14:18:18;9.98;;;5.55;;
42094;SDS011;27753;55.724;37.612;2023-04-24T14:20:44;8.45;;;4.82;;
42094;SDS011;27753;55.724;37.612;2023-04-24T14:23:10;6.82;;;4.40;;
42094;SDS011;27753;55.724;37.612;2023-04-24T14:25:36;10.73;;;5.57;;
42094;SDS011;27753;55.724;37.612;2023-04-24T14:28:02;9.57;;;4.50;;
42094;SDS011;27753;55.724;37.612;2023-04-24T14:30:28;11.35;;;4.85;;
42094;SDS011;27753;55.724;37.612;2023-04-24T14:32:54;6.65;;;4.72;;
42094;SDS011;27753;55.724;37.612;2023-04-24T14:35:20;7.47;;;4.53;;
42094;SDS011;27753;55.724;37.612;2023-04-24T14:37:45;12.18;;;5.38;;
42094;SDS011;27753;55.724;37.612;2023-04-24T14:42:39;10.43;;;4.80;;
42094;SDS011;27753;55.724;37.612;2023-04-24T14:45:04;11.38;;;6.07;;
42094;SDS011;27753;55.724;37.612;2023-04-24T14:47:31;11.02;;;5.72;;
42094;SDS011;27753;55.724;37.612;2023-04-24T14:49:58;7.95;;;4.93;;
42094;SDS011;27753;55.724;37.612;2023-04-24T14:52:24;7.38;;;5.50;;
42094;SDS011;27753;55.724;37.612;2023-04-24T14:54:49;9.68;;;5.07;;
42094;SDS011;27753;55.724;37.612;2023-04-24T14:57:15;10.65;;;4.95;;